Algona, IA

6:06 PM CST on January 23, 2018 (GMT -0600)
Algona Municipal

Weather History for KAXA - October, 2011

Change the Weather History Date:

Monday, October 17, 2011

  Actual Average Record
Temperature  
Mean Temperature 46 °F -  
Max Temperature 59 °F 58 °F 78 °F (2016)
Min Temperature 33 °F 37 °F 26 °F (2004)
Degree Days  
Heating Degree Days 19    
Moisture  
Dew Point 23 °F    
Average Humidity 45    
Maximum Humidity 75    
Minimum Humidity 17    
Precipitation  
Precipitation 0.00 in - - ()
Sea Level Pressure  
Sea Level Pressure 29.94 in    
Wind  
Wind Speed 11 mph (WNW)    
Max Wind Speed 24 mph    
Max Gust Speed 33 mph    
Visibility 10 miles    
Events      
Averages and records for this station are not official NWS values.
T = Trace of Precipitation, MM = Missing Value Source: NWS Daily Summary

Daily Weather History Graph

Daily Weather History Graph

Search for Another Location

Airport or City:

Trip Planner

Search our weather history database for the weather conditions in past years. The results will help you decide how hot, cold, wet, or windy it might be!

Date:

Astronomy

Oct. 17, 2011 Rise Set
Actual Time 7:32 AM CDT 6:31 PM CDT
Civil Twilight 7:04 AM CDT 7:00 PM CDT
Nautical Twilight 6:31 AM CDT 7:33 PM CDT
Astronomical Twilight 5:58 AM CDT 8:05 PM CDT
Moon 10:06 PM CDT (10/17) 12:46 PM CDT (10/17)
Length of Visible Light 11h 56m
Length of Day
10h 58m
Waning Gibbous, 74% of the Moon is Illuminated
Oct 17
Waning Gibbous
Oct 19
Last Quarter
Oct 26
New
Nov 2
First Quarter
Nov 10
Full

Hourly Weather History & Observations

Time (CDT) Temp. Windchill Dew Point Humidity Pressure Visibility Wind Dir Wind Speed Gust Speed Precip Events Conditions
12:15 AM 39.2 °F 32.5 °F 24.8 °F 56% 29.97 in 10.0 mi West 10.4 mph - N/A   Clear
12:35 AM 37.4 °F 31.4 °F 24.8 °F 60% 29.98 in 10.0 mi West 8.1 mph - N/A   Clear
12:55 AM 37.4 °F 30.8 °F 24.8 °F 60% 29.97 in 10.0 mi West 9.2 mph - N/A   Clear
1:15 AM 37.4 °F 31.4 °F 24.8 °F 60% 29.97 in 10.0 mi WNW 8.1 mph - N/A   Clear
1:35 AM 35.6 °F 28.0 °F 24.8 °F 65% 29.97 in 10.0 mi West 10.4 mph - N/A   Clear
1:55 AM 35.6 °F 28.6 °F 24.8 °F 65% 29.97 in 10.0 mi West 9.2 mph - N/A   Clear
2:55 AM 39.2 °F 33.6 °F 24.8 °F 56% 29.96 in 10.0 mi WNW 8.1 mph - N/A   Clear
3:15 AM 39.2 °F 32.5 °F 24.8 °F 56% 29.96 in 10.0 mi WNW 10.4 mph - N/A   Clear
3:35 AM 37.4 °F 32.1 °F 24.8 °F 60% 29.95 in 10.0 mi NW 6.9 mph - N/A   Clear
3:55 AM 35.6 °F 29.9 °F 26.6 °F 70% 29.96 in 10.0 mi West 6.9 mph - N/A   Clear
4:15 AM 37.4 °F 31.4 °F 26.6 °F 65% 29.96 in 10.0 mi WNW 8.1 mph - N/A   Clear
4:35 AM 35.6 °F 28.6 °F 24.8 °F 65% 29.96 in 10.0 mi West 9.2 mph - N/A   Clear
5:15 AM 33.8 °F 26.4 °F 24.8 °F 70% 29.96 in 10.0 mi West 9.2 mph - N/A   Clear
5:35 AM 33.8 °F 27.0 °F 24.8 °F 70% 29.95 in 10.0 mi West 8.1 mph - N/A   Clear
5:55 AM 33.8 °F 27.0 °F 26.6 °F 75% 29.95 in 10.0 mi West 8.1 mph - N/A   Clear
6:15 AM 33.8 °F 26.4 °F 26.6 °F 75% 29.95 in 10.0 mi West 9.2 mph - N/A   Clear
6:35 AM 35.6 °F 29.2 °F 26.6 °F 70% 29.95 in 10.0 mi West 8.1 mph - N/A   Clear
6:55 AM 35.6 °F 29.9 °F 26.6 °F 70% 29.94 in 10.0 mi West 6.9 mph - N/A   Clear
7:15 AM 37.4 °F 30.8 °F 26.6 °F 65% 29.95 in 10.0 mi West 9.2 mph - N/A   Clear
7:35 AM 37.4 °F 31.4 °F 26.6 °F 65% 29.95 in 10.0 mi West 8.1 mph - N/A   Clear
7:55 AM 37.4 °F 31.4 °F 26.6 °F 65% 29.95 in 10.0 mi West 8.1 mph - N/A   Clear
8:15 AM 37.4 °F 30.8 °F 28.4 °F 70% 29.95 in 10.0 mi West 9.2 mph - N/A   Clear
8:35 AM 39.2 °F 33.6 °F 28.4 °F 65% 29.96 in 10.0 mi West 8.1 mph - N/A   Scattered Clouds
8:55 AM 41.0 °F 35.2 °F 28.4 °F 61% 29.96 in 10.0 mi West 9.2 mph - N/A   Clear
9:15 AM 42.8 °F 37.0 °F 28.4 °F 57% 29.96 in 10.0 mi West 10.4 mph - N/A   Clear
9:35 AM 42.8 °F 36.6 °F 28.4 °F 57% 29.96 in 10.0 mi West 11.5 mph - N/A   Clear
9:55 AM 42.8 °F 36.6 °F 28.4 °F 57% 29.97 in 10.0 mi West 11.5 mph - N/A   Clear
10:15 AM 44.6 °F 38.8 °F 28.4 °F 53% 29.97 in 10.0 mi West 11.5 mph - N/A   Clear
10:35 AM 46.4 °F 41.9 °F 28.4 °F 50% 29.97 in 10.0 mi West 9.2 mph - N/A   Clear
10:55 AM 46.4 °F 41.1 °F 26.6 °F 46% 29.97 in 10.0 mi West 11.5 mph - N/A   Clear
11:15 AM 48.2 °F - 26.6 °F 43% 29.97 in 10.0 mi West 12.7 mph - N/A   Clear
11:35 AM 51.8 °F - 26.6 °F 38% 29.97 in 10.0 mi West 13.8 mph 17.3 mph N/A   Clear
11:55 AM 53.6 °F - 24.8 °F 33% 29.96 in 10.0 mi West 16.1 mph 20.7 mph N/A   Clear
12:15 PM 55.4 °F - 23.0 °F 29% 29.96 in 10.0 mi WNW 13.8 mph 21.9 mph N/A   Clear
12:35 PM 55.4 °F - 21.2 °F 26% 29.95 in 10.0 mi WNW 16.1 mph 24.2 mph N/A   Clear
12:55 PM 57.2 °F - 17.6 °F 21% 29.95 in 10.0 mi West 20.7 mph 26.5 mph N/A   Clear
1:15 PM 57.2 °F - 15.8 °F 20% 29.94 in 10.0 mi West 24.2 mph 29.9 mph N/A   Clear
1:35 PM 57.2 °F - 15.8 °F 20% 29.94 in 10.0 mi West 21.9 mph 28.8 mph N/A   Clear
1:55 PM 59.0 °F - 15.8 °F 19% 29.93 in 10.0 mi WNW 23.0 mph 27.6 mph N/A   Clear
2:15 PM 57.2 °F - 15.8 °F 20% 29.93 in 10.0 mi NW 21.9 mph 33.4 mph N/A   Clear
2:35 PM 57.2 °F - 15.8 °F 20% 29.92 in 10.0 mi WNW 17.3 mph 29.9 mph N/A   Clear
2:55 PM 55.4 °F - 15.8 °F 21% 29.92 in 10.0 mi NW 24.2 mph 31.1 mph N/A   Clear
3:15 PM 57.2 °F - 17.6 °F 21% 29.92 in 10.0 mi NW 16.1 mph 27.6 mph N/A   Clear
3:35 PM 57.2 °F - 17.6 °F 21% 29.91 in 10.0 mi WNW 20.7 mph 28.8 mph N/A   Clear
3:55 PM 55.4 °F - 15.8 °F 21% 29.91 in 10.0 mi NW 19.6 mph 26.5 mph N/A   Clear
4:15 PM 57.2 °F - 15.8 °F 20% 29.90 in 10.0 mi NW 12.7 mph 20.7 mph N/A   Clear
4:35 PM 57.2 °F - 12.2 °F 17% 29.90 in 10.0 mi NW 16.1 mph 23.0 mph N/A   Clear
4:55 PM 57.2 °F - 14.0 °F 18% 29.90 in 10.0 mi NNW 18.4 mph 24.2 mph N/A   Clear
5:15 PM 57.2 °F - 15.8 °F 20% 29.90 in 10.0 mi NW 16.1 mph 25.3 mph N/A   Clear
5:35 PM 55.4 °F - 15.8 °F 21% 29.90 in 10.0 mi NW 16.1 mph 24.2 mph N/A   Clear
5:55 PM 53.6 °F - 17.6 °F 24% 29.90 in 10.0 mi NW 12.7 mph - N/A   Clear
6:15 PM 51.8 °F - 19.4 °F 28% 29.91 in 10.0 mi NW 10.4 mph - N/A   Clear
6:35 PM 50.0 °F - 19.4 °F 30% 29.91 in 10.0 mi NW 9.2 mph - N/A   Clear
7:15 PM 44.6 °F 40.2 °F 21.2 °F 39% 29.92 in 10.0 mi West 8.1 mph - N/A   Clear
7:35 PM 46.4 °F 41.9 °F 21.2 °F 37% 29.92 in 10.0 mi West 9.2 mph - N/A   Clear
7:55 PM 44.6 °F 39.7 °F 21.2 °F 39% 29.92 in 10.0 mi West 9.2 mph - N/A   Clear
8:15 PM 44.6 °F 40.2 °F 21.2 °F 39% 29.92 in 10.0 mi West 8.1 mph - N/A   Clear
8:35 PM 42.8 °F 37.5 °F 23.0 °F 46% 29.92 in 10.0 mi West 9.2 mph - N/A   Clear
8:55 PM 44.6 °F 39.7 °F 23.0 °F 43% 29.92 in 10.0 mi West 9.2 mph - N/A   Clear
9:15 PM 44.6 °F 39.7 °F 24.8 °F 46% 29.93 in 10.0 mi West 9.2 mph - N/A   Clear
9:35 PM 46.4 °F 42.4 °F 24.8 °F 43% 29.92 in 10.0 mi West 8.1 mph - N/A   Clear
9:55 PM 46.4 °F 41.1 °F 23.0 °F 40% 29.92 in 10.0 mi West 11.5 mph - N/A   Clear
10:15 PM 48.2 °F - 23.0 °F 37% 29.92 in 10.0 mi West 11.5 mph 17.3 mph N/A   Clear
10:35 PM 48.2 °F - 23.0 °F 37% 29.92 in 10.0 mi West 10.4 mph - N/A   Clear
10:55 PM 46.4 °F 41.1 °F 23.0 °F 40% 29.92 in 10.0 mi West 11.5 mph - N/A   Clear
11:15 PM 46.4 °F 41.9 °F 24.8 °F 43% 29.93 in 10.0 mi West 9.2 mph - N/A   Clear
11:35 PM 44.6 °F 39.7 °F 24.8 °F 46% 29.93 in 10.0 mi WNW 9.2 mph - N/A   Clear
11:55 PM 46.4 °F 41.5 °F 23.0 °F 40% 29.93 in 10.0 mi WNW 10.4 mph - N/A   Clear